sensor_id;sensor_type;location;lat;lon;timestamp;temperature;humidity
30385;DHT22;17181;51.002;4.096;2024-03-07T00:02:37;7.30;99.90
30385;DHT22;17181;51.002;4.096;2024-03-07T00:05:03;7.30;99.90
30385;DHT22;17181;51.002;4.096;2024-03-07T00:07:29;7.30;99.90
30385;DHT22;17181;51.002;4.096;2024-03-07T00:09:56;7.20;99.90
30385;DHT22;17181;51.002;4.096;2024-03-07T00:12:23;7.20;99.90
30385;DHT22;17181;51.002;4.096;2024-03-07T00:14:49;7.20;99.90
30385;DHT22;17181;51.002;4.096;2024-03-07T00:17:14;7.20;99.90
30385;DHT22;17181;51.002;4.096;2024-03-07T00:19:40;7.20;99.90
30385;DHT22;17181;51.002;4.096;2024-03-07T00:22:06;7.20;99.90
30385;DHT22;17181;51.002;4.096;2024-03-07T00:24:31;7.10;99.90
30385;DHT22;17181;51.002;4.096;2024-03-07T00:26:57;7.10;99.90
30385;DHT22;17181;51.002;4.096;2024-03-07T00:29:23;7.10;99.90
30385;DHT22;17181;51.002;4.096;2024-03-07T00:31:50;7.10;99.90
30385;DHT22;17181;51.002;4.096;2024-03-07T00:34:16;7.10;99.90
30385;DHT22;17181;51.002;4.096;2024-03-07T00:36:46;7.00;99.90
30385;DHT22;17181;51.002;4.096;2024-03-07T00:39:12;7.00;99.90
30385;DHT22;17181;51.002;4.096;2024-03-07T00:41:39;7.00;99.90
30385;DHT22;17181;51.002;4.096;2024-03-07T00:44:05;7.00;99.90
30385;DHT22;17181;51.002;4.096;2024-03-07T00:46:31;7.00;99.90
30385;DHT22;17181;51.002;4.096;2024-03-07T00:48:57;6.90;99.90
30385;DHT22;17181;51.002;4.096;2024-03-07T00:51:23;6.90;99.90
30385;DHT22;17181;51.002;4.096;2024-03-07T00:53:49;6.80;99.90
30385;DHT22;17181;51.002;4.096;2024-03-07T00:56:14;6.80;99.90
30385;DHT22;17181;51.002;4.096;2024-03-07T00:58:40;6.70;99.90
30385;DHT22;17181;51.002;4.096;2024-03-07T01:01:06;6.70;99.90
30385;DHT22;17181;51.002;4.096;2024-03-07T01:03:37;6.70;99.90
30385;DHT22;17181;51.002;4.096;2024-03-07T01:06:03;6.60;99.90
30385;DHT22;17181;51.002;4.096;2024-03-07T01:08:29;6.60;99.90
30385;DHT22;17181;51.002;4.096;2024-03-07T01:10:58;6.60;99.90
30385;DHT22;17181;51.002;4.096;2024-03-07T01:13:24;6.60;99.90
30385;DHT22;17181;51.002;4.096;2024-03-07T01:15:50;6.50;99.90
30385;DHT22;17181;51.002;4.096;2024-03-07T01:18:16;6.50;99.90
30385;DHT22;17181;51.002;4.096;2024-03-07T01:20:42;6.50;99.90
30385;DHT22;17181;51.002;4.096;2024-03-07T01:23:08;6.50;99.90
30385;DHT22;17181;51.002;4.096;2024-03-07T01:25:34;6.50;99.90
30385;DHT22;17181;51.002;4.096;2024-03-07T01:28:00;6.50;99.90
30385;DHT22;17181;51.002;4.096;2024-03-07T01:30:27;6.40;99.90
30385;DHT22;17181;51.002;4.096;2024-03-07T01:32:54;6.40;99.90
30385;DHT22;17181;51.002;4.096;2024-03-07T01:35:20;6.40;99.90
30385;DHT22;17181;51.002;4.096;2024-03-07T01:37:46;6.30;99.90
30385;DHT22;17181;51.002;4.096;2024-03-07T01:40:12;6.40;99.90
30385;DHT22;17181;51.002;4.096;2024-03-07T01:42:40;6.30;99.90
30385;DHT22;17181;51.002;4.096;2024-03-07T01:45:06;6.30;99.90
30385;DHT22;17181;51.002;4.096;2024-03-07T01:47:34;6.30;99.90
30385;DHT22;17181;51.002;4.096;2024-03-07T01:50:02;6.30;99.90
30385;DHT22;17181;51.002;4.096;2024-03-07T01:52:30;6.30;99.90
30385;DHT22;17181;51.002;4.096;2024-03-07T01:54:56;6.20;99.90
30385;DHT22;17181;51.002;4.096;2024-03-07T01:57:22;6.30;99.90
30385;DHT22;17181;51.002;4.096;2024-03-07T01:59:48;6.30;99.90
30385;DHT22;17181;51.002;4.096;2024-03-07T02:02:16;6.20;99.90
30385;DHT22;17181;51.002;4.096;2024-03-07T02:04:43;6.20;99.90
30385;DHT22;17181;51.002;4.096;2024-03-07T02:07:09;6.20;99.90
30385;DHT22;17181;51.002;4.096;2024-03-07T02:09:37;6.20;99.90
30385;DHT22;17181;51.002;4.096;2024-03-07T02:12:04;6.10;99.90
30385;DHT22;17181;51.002;4.096;2024-03-07T02:14:29;6.10;99.90
30385;DHT22;17181;51.002;4.096;2024-03-07T02:16:55;6.10;99.90
30385;DHT22;17181;51.002;4.096;2024-03-07T02:19:22;6.10;99.90
30385;DHT22;17181;51.002;4.096;2024-03-07T02:21:48;6.10;99.90
30385;DHT22;17181;51.002;4.096;2024-03-07T02:24:14;6.00;99.90
30385;DHT22;17181;51.002;4.096;2024-03-07T02:26:41;6.10;99.90
30385;DHT22;17181;51.002;4.096;2024-03-07T02:29:07;6.10;99.90
30385;DHT22;17181;51.002;4.096;2024-03-07T02:31:33;6.10;99.90
30385;DHT22;17181;51.002;4.096;2024-03-07T02:34:05;6.00;99.90
30385;DHT22;17181;51.002;4.096;2024-03-07T02:36:33;6.00;99.90
30385;DHT22;17181;51.002;4.096;2024-03-07T02:38:59;6.10;99.90
30385;DHT22;17181;51.002;4.096;2024-03-07T02:41:26;6.00;99.90
30385;DHT22;17181;51.002;4.096;2024-03-07T02:43:52;6.00;99.90
30385;DHT22;17181;51.002;4.096;2024-03-07T02:46:19;6.00;99.90
30385;DHT22;17181;51.002;4.096;2024-03-07T02:48:45;6.00;99.90
30385;DHT22;17181;51.002;4.096;2024-03-07T02:51:10;6.00;99.90
30385;DHT22;17181;51.002;4.096;2024-03-07T02:53:37;5.90;99.90
30385;DHT22;17181;51.002;4.096;2024-03-07T02:56:04;6.00;99.90
30385;DHT22;17181;51.002;4.096;2024-03-07T02:58:33;5.90;99.90
30385;DHT22;17181;51.002;4.096;2024-03-07T03:01:00;5.90;99.90
30385;DHT22;17181;51.002;4.096;2024-03-07T03:03:29;5.90;99.90
30385;DHT22;17181;51.002;4.096;2024-03-07T03:05:59;5.90;99.90
30385;DHT22;17181;51.002;4.096;2024-03-07T03:08:25;5.80;99.90
30385;DHT22;17181;51.002;4.096;2024-03-07T03:10:54;5.90;99.90
30385;DHT22;17181;51.002;4.096;2024-03-07T03:13:23;5.80;99.90
30385;DHT22;17181;51.002;4.096;2024-03-07T03:15:49;5.80;99.90
30385;DHT22;17181;51.002;4.096;2024-03-07T03:18:15;5.70;99.90
30385;DHT22;17181;51.002;4.096;2024-03-07T03:20:41;5.80;99.90
30385;DHT22;17181;51.002;4.096;2024-03-07T03:23:09;5.70;99.90
30385;DHT22;17181;51.002;4.096;2024-03-07T03:25:39;5.70;99.90
30385;DHT22;17181;51.002;4.096;2024-03-07T03:28:05;5.70;99.90
30385;DHT22;17181;51.002;4.096;2024-03-07T03:30:32;5.60;99.90
30385;DHT22;17181;51.002;4.096;2024-03-07T03:32:58;5.60;99.90
30385;DHT22;17181;51.002;4.096;2024-03-07T03:35:24;5.60;99.90
30385;DHT22;17181;51.002;4.096;2024-03-07T03:37:50;5.60;99.90
30385;DHT22;17181;51.002;4.096;2024-03-07T03:40:16;5.50;99.90
30385;DHT22;17181;51.002;4.096;2024-03-07T03:42:42;5.50;99.90
30385;DHT22;17181;51.002;4.096;2024-03-07T03:45:09;5.50;99.90
30385;DHT22;17181;51.002;4.096;2024-03-07T03:47:37;5.50;99.90
30385;DHT22;17181;51.002;4.096;2024-03-07T03:50:07;5.50;99.90
30385;DHT22;17181;51.002;4.096;2024-03-07T03:52:34;5.50;99.90
30385;DHT22;17181;51.002;4.096;2024-03-07T03:55:03;5.50;99.90
30385;DHT22;17181;51.002;4.096;2024-03-07T03:57:31;5.50;99.90
30385;DHT22;17181;51.002;4.096;2024-03-07T03:59:57;5.50;99.90
30385;DHT22;17181;51.002;4.096;2024-03-07T04:02:23;5.40;99.90
30385;DHT22;17181;51.002;4.096;2024-03-07T04:04:50;5.50;99.90
30385;DHT22;17181;51.002;4.096;2024-03-07T04:07:17;5.40;99.90
30385;DHT22;17181;51.002;4.096;2024-03-07T04:09:44;5.40;99.90
30385;DHT22;17181;51.002;4.096;2024-03-07T04:12:10;5.40;99.90
30385;DHT22;17181;51.002;4.096;2024-03-07T04:14:43;5.30;99.90
30385;DHT22;17181;51.002;4.096;2024-03-07T04:17:10;5.30;99.90
30385;DHT22;17181;51.002;4.096;2024-03-07T04:19:43;5.30;99.90
30385;DHT22;17181;51.002;4.096;2024-03-07T04:22:09;5.30;99.90
30385;DHT22;17181;51.002;4.096;2024-03-07T04:24:35;5.20;99.90
30385;DHT22;17181;51.002;4.096;2024-03-07T04:27:05;5.20;99.90
30385;DHT22;17181;51.002;4.096;2024-03-07T04:29:31;5.20;99.90
30385;DHT22;17181;51.002;4.096;2024-03-07T04:31:58;5.20;99.90
30385;DHT22;17181;51.002;4.096;2024-03-07T04:34:24;5.10;99.90
30385;DHT22;17181;51.002;4.096;2024-03-07T04:36:50;5.10;99.90
30385;DHT22;17181;51.002;4.096;2024-03-07T04:39:16;5.10;99.90
30385;DHT22;17181;51.002;4.096;2024-03-07T04:41:56;5.10;99.90
30385;DHT22;17181;51.002;4.096;2024-03-07T04:44:22;5.00;99.90
30385;DHT22;17181;51.002;4.096;2024-03-07T04:46:48;5.00;99.90
30385;DHT22;17181;51.002;4.096;2024-03-07T04:49:15;5.00;99.90
30385;DHT22;17181;51.002;4.096;2024-03-07T04:51:41;5.00;99.90
30385;DHT22;17181;51.002;4.096;2024-03-07T04:54:07;5.00;99.90
30385;DHT22;17181;51.002;4.096;2024-03-07T04:56:33;4.90;99.90
30385;DHT22;17181;51.002;4.096;2024-03-07T04:58:59;4.90;99.90
30385;DHT22;17181;51.002;4.096;2024-03-07T05:01:24;4.80;99.90
30385;DHT22;17181;51.002;4.096;2024-03-07T05:03:50;4.80;99.90
30385;DHT22;17181;51.002;4.096;2024-03-07T05:06:18;4.80;99.90
30385;DHT22;17181;51.002;4.096;2024-03-07T05:08:44;4.80;99.90
30385;DHT22;17181;51.002;4.096;2024-03-07T05:11:10;4.90;99.90
30385;DHT22;17181;51.002;4.096;2024-03-07T05:13:36;4.80;99.90
30385;DHT22;17181;51.002;4.096;2024-03-07T05:16:03;4.80;99.90
30385;DHT22;17181;51.002;4.096;2024-03-07T05:18:29;4.90;99.90
30385;DHT22;17181;51.002;4.096;2024-03-07T05:20:54;4.90;99.90
30385;DHT22;17181;51.002;4.096;2024-03-07T05:23:20;4.90;99.90
30385;DHT22;17181;51.002;4.096;2024-03-07T05:25:46;4.90;99.90
30385;DHT22;17181;51.002;4.096;2024-03-07T05:28:12;5.00;99.90
30385;DHT22;17181;51.002;4.096;2024-03-07T05:30:38;5.00;99.90
30385;DHT22;17181;51.002;4.096;2024-03-07T05:33:04;5.10;99.90
30385;DHT22;17181;51.002;4.096;2024-03-07T05:35:30;5.10;99.90
30385;DHT22;17181;51.002;4.096;2024-03-07T05:37:56;5.10;99.90
30385;DHT22;17181;51.002;4.096;2024-03-07T05:40:22;5.20;99.90
30385;DHT22;17181;51.002;4.096;2024-03-07T05:42:48;5.10;99.90
30385;DHT22;17181;51.002;4.096;2024-03-07T05:45:14;5.20;99.90
30385;DHT22;17181;51.002;4.096;2024-03-07T05:47:41;5.10;99.90
30385;DHT22;17181;51.002;4.096;2024-03-07T05:50:07;5.10;99.90
30385;DHT22;17181;51.002;4.096;2024-03-07T05:52:33;5.10;99.90
30385;DHT22;17181;51.002;4.096;2024-03-07T05:54:59;5.10;99.90
30385;DHT22;17181;51.002;4.096;2024-03-07T05:57:25;5.20;99.90
30385;DHT22;17181;51.002;4.096;2024-03-07T05:59:50;5.20;99.90
30385;DHT22;17181;51.002;4.096;2024-03-07T06:02:16;5.10;99.90
30385;DHT22;17181;51.002;4.096;2024-03-07T06:04:43;5.10;99.90
30385;DHT22;17181;51.002;4.096;2024-03-07T06:07:09;5.10;99.90
30385;DHT22;17181;51.002;4.096;2024-03-07T06:09:36;5.20;99.90
30385;DHT22;17181;51.002;4.096;2024-03-07T06:12:02;5.20;99.90
30385;DHT22;17181;51.002;4.096;2024-03-07T06:14:32;5.20;99.90
30385;DHT22;17181;51.002;4.096;2024-03-07T06:16:58;5.30;99.90
30385;DHT22;17181;51.002;4.096;2024-03-07T06:19:24;5.30;99.90
30385;DHT22;17181;51.002;4.096;2024-03-07T06:21:50;5.40;99.90
30385;DHT22;17181;51.002;4.096;2024-03-07T06:24:15;5.50;99.90
30385;DHT22;17181;51.002;4.096;2024-03-07T06:26:43;5.50;99.90
30385;DHT22;17181;51.002;4.096;2024-03-07T06:29:09;5.60;99.90
30385;DHT22;17181;51.002;4.096;2024-03-07T06:31:37;5.70;99.90
30385;DHT22;17181;51.002;4.096;2024-03-07T06:34:03;5.70;99.90
30385;DHT22;17181;51.002;4.096;2024-03-07T06:36:29;5.80;99.90
30385;DHT22;17181;51.002;4.096;2024-03-07T06:38:55;5.90;99.90
30385;DHT22;17181;51.002;4.096;2024-03-07T06:41:21;5.90;99.90
30385;DHT22;17181;51.002;4.096;2024-03-07T06:43:48;6.00;99.90
30385;DHT22;17181;51.002;4.096;2024-03-07T06:46:16;6.00;99.90
30385;DHT22;17181;51.002;4.096;2024-03-07T06:48:43;6.00;99.90
30385;DHT22;17181;51.002;4.096;2024-03-07T06:51:10;6.10;99.90
30385;DHT22;17181;51.002;4.096;2024-03-07T06:53:36;6.10;99.90
30385;DHT22;17181;51.002;4.096;2024-03-07T06:56:05;6.20;99.90
30385;DHT22;17181;51.002;4.096;2024-03-07T06:58:32;6.20;99.90
30385;DHT22;17181;51.002;4.096;2024-03-07T07:00:59;6.30;99.90
30385;DHT22;17181;51.002;4.096;2024-03-07T07:03:26;6.30;99.90
30385;DHT22;17181;51.002;4.096;2024-03-07T07:06:00;6.30;99.90
30385;DHT22;17181;51.002;4.096;2024-03-07T07:08:26;6.30;99.90
30385;DHT22;17181;51.002;4.096;2024-03-07T07:10:55;6.40;99.90
30385;DHT22;17181;51.002;4.096;2024-03-07T07:13:22;6.40;99.90
30385;DHT22;17181;51.002;4.096;2024-03-07T07:15:49;6.40;99.90
30385;DHT22;17181;51.002;4.096;2024-03-07T07:18:15;6.50;99.90
30385;DHT22;17181;51.002;4.096;2024-03-07T07:20:42;6.50;99.90
30385;DHT22;17181;51.002;4.096;2024-03-07T07:23:08;6.60;99.90
30385;DHT22;17181;51.002;4.096;2024-03-07T07:25:35;6.60;99.90
30385;DHT22;17181;51.002;4.096;2024-03-07T07:28:02;6.60;99.90
30385;DHT22;17181;51.002;4.096;2024-03-07T07:30:30;6.60;99.90
30385;DHT22;17181;51.002;4.096;2024-03-07T07:32:56;6.70;99.90
30385;DHT22;17181;51.002;4.096;2024-03-07T07:35:22;6.70;99.90
30385;DHT22;17181;51.002;4.096;2024-03-07T07:37:52;6.70;99.90
30385;DHT22;17181;51.002;4.096;2024-03-07T07:40:20;6.70;99.90
30385;DHT22;17181;51.002;4.096;2024-03-07T07:42:52;6.80;99.90
30385;DHT22;17181;51.002;4.096;2024-03-07T07:45:21;6.80;99.90
30385;DHT22;17181;51.002;4.096;2024-03-07T07:47:51;6.80;99.90
30385;DHT22;17181;51.002;4.096;2024-03-07T07:50:20;6.80;99.90
30385;DHT22;17181;51.002;4.096;2024-03-07T07:52:54;6.80;99.90
30385;DHT22;17181;51.002;4.096;2024-03-07T07:55:22;6.80;99.90
30385;DHT22;17181;51.002;4.096;2024-03-07T07:57:50;6.90;99.90
30385;DHT22;17181;51.002;4.096;2024-03-07T08:00:21;7.00;99.90
30385;DHT22;17181;51.002;4.096;2024-03-07T08:05:18;7.00;99.90
30385;DHT22;17181;51.002;4.096;2024-03-07T08:07:45;7.00;99.90
30385;DHT22;17181;51.002;4.096;2024-03-07T08:10:14;7.10;99.90
30385;DHT22;17181;51.002;4.096;2024-03-07T08:12:41;7.10;99.90
30385;DHT22;17181;51.002;4.096;2024-03-07T08:15:13;7.10;99.90
30385;DHT22;17181;51.002;4.096;2024-03-07T08:17:45;7.20;99.90
30385;DHT22;17181;51.002;4.096;2024-03-07T08:20:19;7.20;99.90
30385;DHT22;17181;51.002;4.096;2024-03-07T08:22:49;7.30;99.90
30385;DHT22;17181;51.002;4.096;2024-03-07T08:25:20;7.40;99.90
30385;DHT22;17181;51.002;4.096;2024-03-07T08:27:50;7.40;99.90
30385;DHT22;17181;51.002;4.096;2024-03-07T08:30:17;7.50;99.90
30385;DHT22;17181;51.002;4.096;2024-03-07T08:32:56;7.50;99.90
30385;DHT22;17181;51.002;4.096;2024-03-07T08:35:23;7.50;99.90
30385;DHT22;17181;51.002;4.096;2024-03-07T08:37:51;7.60;99.90
30385;DHT22;17181;51.002;4.096;2024-03-07T08:40:21;7.70;99.90
30385;DHT22;17181;51.002;4.096;2024-03-07T08:42:50;7.70;99.90
30385;DHT22;17181;51.002;4.096;2024-03-07T08:45:18;7.80;99.90
30385;DHT22;17181;51.002;4.096;2024-03-07T08:47:48;7.90;99.90
30385;DHT22;17181;51.002;4.096;2024-03-07T08:50:15;8.00;99.90
30385;DHT22;17181;51.002;4.096;2024-03-07T08:52:47;8.00;99.90
30385;DHT22;17181;51.002;4.096;2024-03-07T08:55:19;8.10;99.90
30385;DHT22;17181;51.002;4.096;2024-03-07T08:57:46;8.00;99.90
30385;DHT22;17181;51.002;4.096;2024-03-07T09:00:15;8.10;99.90
30385;DHT22;17181;51.002;4.096;2024-03-07T09:02:50;8.00;99.90
30385;DHT22;17181;51.002;4.096;2024-03-07T09:05:22;8.00;99.90
30385;DHT22;17181;51.002;4.096;2024-03-07T09:07:49;8.00;99.90
30385;DHT22;17181;51.002;4.096;2024-03-07T09:10:17;8.10;99.90
30385;DHT22;17181;51.002;4.096;2024-03-07T09:12:44;8.10;99.90
30385;DHT22;17181;51.002;4.096;2024-03-07T09:15:15;8.20;99.90
30385;DHT22;17181;51.002;4.096;2024-03-07T09:17:47;8.30;99.90
30385;DHT22;17181;51.002;4.096;2024-03-07T09:20:13;8.40;99.90
30385;DHT22;17181;51.002;4.096;2024-03-07T09:22:44;8.60;99.90
30385;DHT22;17181;51.002;4.096;2024-03-07T09:25:17;8.70;99.90
30385;DHT22;17181;51.002;4.096;2024-03-07T09:27:46;8.90;99.90
30385;DHT22;17181;51.002;4.096;2024-03-07T09:30:13;9.00;99.90
30385;DHT22;17181;51.002;4.096;2024-03-07T09:32:45;9.20;99.90
30385;DHT22;17181;51.002;4.096;2024-03-07T09:35:11;9.30;99.90
30385;DHT22;17181;51.002;4.096;2024-03-07T09:37:40;9.30;99.90
30385;DHT22;17181;51.002;4.096;2024-03-07T09:40:11;9.40;99.90
30385;DHT22;17181;51.002;4.096;2024-03-07T09:42:48;9.40;99.90
30385;DHT22;17181;51.002;4.096;2024-03-07T09:45:19;9.30;99.90
30385;DHT22;17181;51.002;4.096;2024-03-07T09:47:47;9.20;99.90
30385;DHT22;17181;51.002;4.096;2024-03-07T09:50:18;9.20;99.90
30385;DHT22;17181;51.002;4.096;2024-03-07T09:52:46;9.20;99.90
30385;DHT22;17181;51.002;4.096;2024-03-07T09:55:21;9.20;99.90
30385;DHT22;17181;51.002;4.096;2024-03-07T09:57:48;9.30;99.90
30385;DHT22;17181;51.002;4.096;2024-03-07T10:00:21;9.20;99.90
30385;DHT22;17181;51.002;4.096;2024-03-07T10:03:09;9.30;99.90
30385;DHT22;17181;51.002;4.096;2024-03-07T10:05:35;9.30;99.90
30385;DHT22;17181;51.002;4.096;2024-03-07T10:08:03;9.40;99.90
30385;DHT22;17181;51.002;4.096;2024-03-07T10:10:30;9.50;99.90
30385;DHT22;17181;51.002;4.096;2024-03-07T10:12:57;9.50;99.90
30385;DHT22;17181;51.002;4.096;2024-03-07T10:15:33;9.60;99.90
30385;DHT22;17181;51.002;4.096;2024-03-07T10:18:00;9.60;99.90
30385;DHT22;17181;51.002;4.096;2024-03-07T10:20:30;9.70;99.90
30385;DHT22;17181;51.002;4.096;2024-03-07T10:23:01;9.70;99.90
30385;DHT22;17181;51.002;4.096;2024-03-07T10:25:28;9.80;99.90
30385;DHT22;17181;51.002;4.096;2024-03-07T10:27:56;9.90;99.90
30385;DHT22;17181;51.002;4.096;2024-03-07T10:30:27;10.00;99.90
30385;DHT22;17181;51.002;4.096;2024-03-07T10:32:58;10.00;99.90
30385;DHT22;17181;51.002;4.096;2024-03-07T10:35:25;10.20;99.90
30385;DHT22;17181;51.002;4.096;2024-03-07T10:37:56;10.20;99.90
30385;DHT22;17181;51.002;4.096;2024-03-07T10:40:26;10.30;99.90
30385;DHT22;17181;51.002;4.096;2024-03-07T10:42:57;10.30;99.90
30385;DHT22;17181;51.002;4.096;2024-03-07T10:45:23;10.40;99.90
30385;DHT22;17181;51.002;4.096;2024-03-07T10:47:57;10.40;99.90
30385;DHT22;17181;51.002;4.096;2024-03-07T10:53:25;10.60;99.90
30385;DHT22;17181;51.002;4.096;2024-03-07T11:04:42;10.90;99.90
30385;DHT22;17181;51.002;4.096;2024-03-07T11:07:12;11.00;99.90
30385;DHT22;17181;51.002;4.096;2024-03-07T11:09:39;11.10;99.90
30385;DHT22;17181;51.002;4.096;2024-03-07T11:12:09;11.20;99.90
30385;DHT22;17181;51.002;4.096;2024-03-07T11:14:46;11.20;99.90
30385;DHT22;17181;51.002;4.096;2024-03-07T11:17:15;11.30;99.90
30385;DHT22;17181;51.002;4.096;2024-03-07T11:19:54;11.40;99.90
30385;DHT22;17181;51.002;4.096;2024-03-07T11:22:41;11.50;99.90
30385;DHT22;17181;51.002;4.096;2024-03-07T11:25:10;11.60;99.90
30385;DHT22;17181;51.002;4.096;2024-03-07T11:27:38;11.70;99.90
30385;DHT22;17181;51.002;4.096;2024-03-07T11:30:12;11.70;99.90
30385;DHT22;17181;51.002;4.096;2024-03-07T11:32:53;11.80;99.90
30385;DHT22;17181;51.002;4.096;2024-03-07T11:35:33;11.90;99.90
30385;DHT22;17181;51.002;4.096;2024-03-07T11:38:19;12.00;99.90
30385;DHT22;17181;51.002;4.096;2024-03-07T11:40:51;12.10;99.90
30385;DHT22;17181;51.002;4.096;2024-03-07T11:43:26;12.10;99.90
30385;DHT22;17181;51.002;4.096;2024-03-07T11:45:56;12.00;99.90
30385;DHT22;17181;51.002;4.096;2024-03-07T11:48:29;11.90;99.90
30385;DHT22;17181;51.002;4.096;2024-03-07T11:51:02;11.90;99.90
30385;DHT22;17181;51.002;4.096;2024-03-07T11:53:38;11.90;99.90
30385;DHT22;17181;51.002;4.096;2024-03-07T11:56:05;12.10;99.90
30385;DHT22;17181;51.002;4.096;2024-03-07T11:58:44;12.20;99.90
30385;DHT22;17181;51.002;4.096;2024-03-07T12:01:10;12.40;99.90
30385;DHT22;17181;51.002;4.096;2024-03-07T12:03:44;12.60;99.90
30385;DHT22;17181;51.002;4.096;2024-03-07T12:06:19;12.70;99.90
30385;DHT22;17181;51.002;4.096;2024-03-07T12:08:49;12.80;99.90
30385;DHT22;17181;51.002;4.096;2024-03-07T12:11:15;12.80;99.90
30385;DHT22;17181;51.002;4.096;2024-03-07T12:13:43;12.90;99.90
30385;DHT22;17181;51.002;4.096;2024-03-07T12:16:15;12.90;99.90
30385;DHT22;17181;51.002;4.096;2024-03-07T12:18:42;13.00;99.90
30385;DHT22;17181;51.002;4.096;2024-03-07T12:21:14;12.90;99.90
30385;DHT22;17181;51.002;4.096;2024-03-07T12:23:41;12.80;99.90
30385;DHT22;17181;51.002;4.096;2024-03-07T12:26:07;12.80;99.90
30385;DHT22;17181;51.002;4.096;2024-03-07T12:28:36;12.70;99.90
30385;DHT22;17181;51.002;4.096;2024-03-07T12:31:04;12.60;99.90
30385;DHT22;17181;51.002;4.096;2024-03-07T12:33:31;12.60;99.90
30385;DHT22;17181;51.002;4.096;2024-03-07T12:36:05;12.50;99.90
30385;DHT22;17181;51.002;4.096;2024-03-07T12:38:33;12.40;99.90
30385;DHT22;17181;51.002;4.096;2024-03-07T12:41:07;12.30;99.90
30385;DHT22;17181;51.002;4.096;2024-03-07T12:43:34;12.30;99.90
30385;DHT22;17181;51.002;4.096;2024-03-07T12:46:01;12.30;99.90
30385;DHT22;17181;51.002;4.096;2024-03-07T12:48:27;12.40;99.90
30385;DHT22;17181;51.002;4.096;2024-03-07T12:50:53;12.40;99.90
30385;DHT22;17181;51.002;4.096;2024-03-07T12:53:23;12.30;99.90
30385;DHT22;17181;51.002;4.096;2024-03-07T12:55:51;12.40;99.90
30385;DHT22;17181;51.002;4.096;2024-03-07T12:58:23;12.40;99.90
30385;DHT22;17181;51.002;4.096;2024-03-07T13:01:03;12.50;99.90
30385;DHT22;17181;51.002;4.096;2024-03-07T13:03:29;12.70;99.90
30385;DHT22;17181;51.002;4.096;2024-03-07T13:05:57;12.80;99.90
30385;DHT22;17181;51.002;4.096;2024-03-07T13:08:27;12.90;99.90
30385;DHT22;17181;51.002;4.096;2024-03-07T13:10:55;12.80;99.90
30385;DHT22;17181;51.002;4.096;2024-03-07T13:13:22;12.90;99.90
30385;DHT22;17181;51.002;4.096;2024-03-07T13:15:51;12.80;99.90
30385;DHT22;17181;51.002;4.096;2024-03-07T13:18:20;12.80;99.90
30385;DHT22;17181;51.002;4.096;2024-03-07T13:20:47;12.80;99.90
30385;DHT22;17181;51.002;4.096;2024-03-07T13:23:16;12.80;99.90
30385;DHT22;17181;51.002;4.096;2024-03-07T13:25:43;12.80;99.90
30385;DHT22;17181;51.002;4.096;2024-03-07T13:28:12;12.90;99.90
30385;DHT22;17181;51.002;4.096;2024-03-07T13:30:53;13.00;99.90
30385;DHT22;17181;51.002;4.096;2024-03-07T13:33:26;13.10;99.90
30385;DHT22;17181;51.002;4.096;2024-03-07T13:35:53;13.30;99.90
30385;DHT22;17181;51.002;4.096;2024-03-07T13:38:19;13.50;99.90
30385;DHT22;17181;51.002;4.096;2024-03-07T13:40:46;13.60;99.90
30385;DHT22;17181;51.002;4.096;2024-03-07T13:43:12;13.60;99.90
30385;DHT22;17181;51.002;4.096;2024-03-07T13:45:41;13.60;99.90
30385;DHT22;17181;51.002;4.096;2024-03-07T13:48:10;13.60;99.90
30385;DHT22;17181;51.002;4.096;2024-03-07T13:50:39;13.60;99.90
30385;DHT22;17181;51.002;4.096;2024-03-07T13:53:09;13.70;99.90
30385;DHT22;17181;51.002;4.096;2024-03-07T14:01:28;14.40;99.90
30385;DHT22;17181;51.002;4.096;2024-03-07T14:10:13;16.10;99.90
30385;DHT22;17181;51.002;4.096;2024-03-07T14:13:13;17.00;99.90
30385;DHT22;17181;51.002;4.096;2024-03-07T14:30:55;19.20;99.90
30385;DHT22;17181;51.002;4.096;2024-03-07T14:33:30;19.70;99.90
30385;DHT22;17181;51.002;4.096;2024-03-07T14:36:07;20.20;99.90
30385;DHT22;17181;51.002;4.096;2024-03-07T14:38:52;20.50;99.90
30385;DHT22;17181;51.002;4.096;2024-03-07T14:41:49;20.80;99.90
30385;DHT22;17181;51.002;4.096;2024-03-07T14:44:18;20.90;99.90
30385;DHT22;17181;51.002;4.096;2024-03-07T14:46:47;21.10;99.70
30385;DHT22;17181;51.002;4.096;2024-03-07T14:49:21;21.30;99.10
30385;DHT22;17181;51.002;4.096;2024-03-07T14:51:52;21.50;98.00
30385;DHT22;17181;51.002;4.096;2024-03-07T14:54:21;21.70;97.40
30385;DHT22;17181;51.002;4.096;2024-03-07T14:56:48;21.90;96.30
30385;DHT22;17181;51.002;4.096;2024-03-07T14:59:17;22.00;95.30
30385;DHT22;17181;51.002;4.096;2024-03-07T15:01:44;22.20;94.30
30385;DHT22;17181;51.002;4.096;2024-03-07T15:04:10;22.20;92.60
30385;DHT22;17181;51.002;4.096;2024-03-07T15:06:39;22.20;91.60
30385;DHT22;17181;51.002;4.096;2024-03-07T15:09:06;22.10;90.50
30385;DHT22;17181;51.002;4.096;2024-03-07T15:11:39;21.90;90.10
30385;DHT22;17181;51.002;4.096;2024-03-07T15:14:06;21.70;89.80
30385;DHT22;17181;51.002;4.096;2024-03-07T15:16:38;21.60;88.60
30385;DHT22;17181;51.002;4.096;2024-03-07T15:19:07;21.60;88.10
30385;DHT22;17181;51.002;4.096;2024-03-07T15:21:36;21.60;87.40
30385;DHT22;17181;51.002;4.096;2024-03-07T15:24:06;21.60;85.20
30385;DHT22;17181;51.002;4.096;2024-03-07T15:26:33;21.60;83.90
30385;DHT22;17181;51.002;4.096;2024-03-07T15:29:00;21.70;82.50
30385;DHT22;17181;51.002;4.096;2024-03-07T15:31:29;21.60;80.80
30385;DHT22;17181;51.002;4.096;2024-03-07T15:33:55;21.30;79.60
30385;DHT22;17181;51.002;4.096;2024-03-07T15:36:22;21.00;78.20
30385;DHT22;17181;51.002;4.096;2024-03-07T15:38:49;20.70;78.20
30385;DHT22;17181;51.002;4.096;2024-03-07T15:41:15;20.50;78.20
30385;DHT22;17181;51.002;4.096;2024-03-07T15:43:41;20.40;78.20
30385;DHT22;17181;51.002;4.096;2024-03-07T15:46:11;20.30;78.90
30385;DHT22;17181;51.002;4.096;2024-03-07T15:48:39;20.40;78.60
30385;DHT22;17181;51.002;4.096;2024-03-07T15:51:06;20.60;77.90
30385;DHT22;17181;51.002;4.096;2024-03-07T15:53:38;20.60;76.50
30385;DHT22;17181;51.002;4.096;2024-03-07T15:56:06;20.50;75.80
30385;DHT22;17181;51.002;4.096;2024-03-07T15:58:38;20.70;76.10
30385;DHT22;17181;51.002;4.096;2024-03-07T16:01:05;20.60;74.00
30385;DHT22;17181;51.002;4.096;2024-03-07T16:03:31;20.40;73.30
30385;DHT22;17181;51.002;4.096;2024-03-07T16:06:01;20.10;72.00
30385;DHT22;17181;51.002;4.096;2024-03-07T16:08:46;19.70;71.20
30385;DHT22;17181;51.002;4.096;2024-03-07T16:11:18;19.40;70.60
30385;DHT22;17181;51.002;4.096;2024-03-07T16:14:22;19.10;70.70
30385;DHT22;17181;51.002;4.096;2024-03-07T16:16:49;18.80;70.20
30385;DHT22;17181;51.002;4.096;2024-03-07T16:19:18;18.50;70.80
30385;DHT22;17181;51.002;4.096;2024-03-07T16:22:05;18.40;71.10
30385;DHT22;17181;51.002;4.096;2024-03-07T16:25:26;18.20;71.30
30385;DHT22;17181;51.002;4.096;2024-03-07T16:48:45;16.30;73.70
30385;DHT22;17181;51.002;4.096;2024-03-07T16:51:12;16.10;74.20
30385;DHT22;17181;51.002;4.096;2024-03-07T16:53:39;15.90;74.50